sensor_id;sensor_type;location;lat;lon;timestamp;temperature;humidity
5868;DHT22;2960;49.142;7.768;2023-05-16T00:00:47;14.60;70.50
5868;DHT22;2960;49.142;7.768;2023-05-16T00:03:16;14.60;70.50
5868;DHT22;2960;49.142;7.768;2023-05-16T00:05:43;14.50;70.50
5868;DHT22;2960;49.142;7.768;2023-05-16T00:08:11;14.50;70.50
5868;DHT22;2960;49.142;7.768;2023-05-16T00:10:41;14.50;70.50
5868;DHT22;2960;49.142;7.768;2023-05-16T00:13:08;14.50;70.60
5868;DHT22;2960;49.142;7.768;2023-05-16T00:15:35;14.40;70.50
5868;DHT22;2960;49.142;7.768;2023-05-16T00:18:03;14.40;71.30
5868;DHT22;2960;49.142;7.768;2023-05-16T00:20:31;14.40;70.50
5868;DHT22;2960;49.142;7.768;2023-05-16T00:23:00;14.40;70.50
5868;DHT22;2960;49.142;7.768;2023-05-16T00:25:28;14.40;70.50
5868;DHT22;2960;49.142;7.768;2023-05-16T00:27:55;14.30;70.50
5868;DHT22;2960;49.142;7.768;2023-05-16T00:30:23;14.30;70.50
5868;DHT22;2960;49.142;7.768;2023-05-16T00:32:50;14.20;70.50
5868;DHT22;2960;49.142;7.768;2023-05-16T00:35:17;14.20;70.60
5868;DHT22;2960;49.142;7.768;2023-05-16T00:37:47;14.20;70.70
5868;DHT22;2960;49.142;7.768;2023-05-16T00:40:15;14.20;70.80
5868;DHT22;2960;49.142;7.768;2023-05-16T00:42:42;14.10;70.70
5868;DHT22;2960;49.142;7.768;2023-05-16T00:45:10;14.10;70.70
5868;DHT22;2960;49.142;7.768;2023-05-16T00:47:37;14.10;70.60
5868;DHT22;2960;49.142;7.768;2023-05-16T00:50:05;14.10;70.60
5868;DHT22;2960;49.142;7.768;2023-05-16T00:52:32;14.10;70.60
5868;DHT22;2960;49.142;7.768;2023-05-16T00:55:02;14.10;70.70
5868;DHT22;2960;49.142;7.768;2023-05-16T00:57:30;14.10;71.50
5868;DHT22;2960;49.142;7.768;2023-05-16T00:59:57;14.00;70.60
5868;DHT22;2960;49.142;7.768;2023-05-16T01:02:25;14.00;70.70
5868;DHT22;2960;49.142;7.768;2023-05-16T01:04:54;14.00;70.70
5868;DHT22;2960;49.142;7.768;2023-05-16T01:07:21;14.00;70.80
5868;DHT22;2960;49.142;7.768;2023-05-16T01:09:49;14.00;71.60
5868;DHT22;2960;49.142;7.768;2023-05-16T01:12:23;14.00;70.90
5868;DHT22;2960;49.142;7.768;2023-05-16T01:15:01;13.90;70.80
5868;DHT22;2960;49.142;7.768;2023-05-16T01:17:37;13.90;70.90
5868;DHT22;2960;49.142;7.768;2023-05-16T01:20:20;13.90;70.90
5868;DHT22;2960;49.142;7.768;2023-05-16T01:23:04;14.00;71.00
5868;DHT22;2960;49.142;7.768;2023-05-16T01:25:55;14.00;70.90
5868;DHT22;2960;49.142;7.768;2023-05-16T01:28:25;13.90;70.80
5868;DHT22;2960;49.142;7.768;2023-05-16T01:30:53;13.90;71.70
5868;DHT22;2960;49.142;7.768;2023-05-16T01:33:20;13.90;70.90
5868;DHT22;2960;49.142;7.768;2023-05-16T01:35:54;13.90;70.90
5868;DHT22;2960;49.142;7.768;2023-05-16T01:38:25;13.90;71.00
5868;DHT22;2960;49.142;7.768;2023-05-16T01:40:56;13.80;70.90
5868;DHT22;2960;49.142;7.768;2023-05-16T01:43:33;13.80;71.00
5868;DHT22;2960;49.142;7.768;2023-05-16T01:46:06;13.80;71.10
5868;DHT22;2960;49.142;7.768;2023-05-16T01:48:43;13.80;71.10
5868;DHT22;2960;49.142;7.768;2023-05-16T01:51:18;13.70;71.10
5868;DHT22;2960;49.142;7.768;2023-05-16T01:53:48;13.70;71.10
5868;DHT22;2960;49.142;7.768;2023-05-16T01:56:16;13.70;71.30
5868;DHT22;2960;49.142;7.768;2023-05-16T01:58:47;13.60;71.20
5868;DHT22;2960;49.142;7.768;2023-05-16T02:01:15;13.60;71.20
5868;DHT22;2960;49.142;7.768;2023-05-16T02:03:43;13.60;71.20
5868;DHT22;2960;49.142;7.768;2023-05-16T02:06:10;13.60;71.20
5868;DHT22;2960;49.142;7.768;2023-05-16T02:08:37;13.60;71.20
5868;DHT22;2960;49.142;7.768;2023-05-16T02:11:04;13.60;71.30
5868;DHT22;2960;49.142;7.768;2023-05-16T02:13:31;13.60;71.30
5868;DHT22;2960;49.142;7.768;2023-05-16T02:15:59;13.60;71.30
5868;DHT22;2960;49.142;7.768;2023-05-16T02:18:26;13.50;71.30
5868;DHT22;2960;49.142;7.768;2023-05-16T02:20:53;13.50;71.40
5868;DHT22;2960;49.142;7.768;2023-05-16T02:23:21;13.50;71.50
5868;DHT22;2960;49.142;7.768;2023-05-16T02:25:48;13.50;71.60
5868;DHT22;2960;49.142;7.768;2023-05-16T02:28:15;13.50;71.60
5868;DHT22;2960;49.142;7.768;2023-05-16T02:30:42;13.50;71.60
5868;DHT22;2960;49.142;7.768;2023-05-16T02:33:10;13.50;71.60
5868;DHT22;2960;49.142;7.768;2023-05-16T02:35:38;13.50;71.60
5868;DHT22;2960;49.142;7.768;2023-05-16T02:38:05;13.50;71.50
5868;DHT22;2960;49.142;7.768;2023-05-16T02:40:32;13.50;71.40
5868;DHT22;2960;49.142;7.768;2023-05-16T02:42:59;13.50;71.30
5868;DHT22;2960;49.142;7.768;2023-05-16T02:45:26;13.60;72.20
5868;DHT22;2960;49.142;7.768;2023-05-16T02:47:53;13.60;71.40
5868;DHT22;2960;49.142;7.768;2023-05-16T02:50:22;13.60;71.40
5868;DHT22;2960;49.142;7.768;2023-05-16T02:52:49;13.60;71.50
5868;DHT22;2960;49.142;7.768;2023-05-16T02:55:16;13.60;71.50
5868;DHT22;2960;49.142;7.768;2023-05-16T02:57:44;13.60;71.50
5868;DHT22;2960;49.142;7.768;2023-05-16T03:00:12;13.60;71.60
5868;DHT22;2960;49.142;7.768;2023-05-16T03:02:40;13.60;71.60
5868;DHT22;2960;49.142;7.768;2023-05-16T03:05:07;13.60;72.40
5868;DHT22;2960;49.142;7.768;2023-05-16T03:07:37;13.60;71.60
5868;DHT22;2960;49.142;7.768;2023-05-16T03:10:06;13.60;71.60
5868;DHT22;2960;49.142;7.768;2023-05-16T03:12:33;13.60;71.60
5868;DHT22;2960;49.142;7.768;2023-05-16T03:15:01;13.60;71.60
5868;DHT22;2960;49.142;7.768;2023-05-16T03:17:28;13.60;71.60
5868;DHT22;2960;49.142;7.768;2023-05-16T03:19:55;13.60;71.70
5868;DHT22;2960;49.142;7.768;2023-05-16T03:22:22;13.60;71.70
5868;DHT22;2960;49.142;7.768;2023-05-16T03:24:51;13.50;71.60
5868;DHT22;2960;49.142;7.768;2023-05-16T03:27:18;13.60;71.80
5868;DHT22;2960;49.142;7.768;2023-05-16T03:29:46;13.50;71.70
5868;DHT22;2960;49.142;7.768;2023-05-16T03:32:13;13.60;71.80
5868;DHT22;2960;49.142;7.768;2023-05-16T03:34:40;13.60;71.80
5868;DHT22;2960;49.142;7.768;2023-05-16T03:37:07;13.60;71.80
5868;DHT22;2960;49.142;7.768;2023-05-16T03:39:35;13.60;71.80
5868;DHT22;2960;49.142;7.768;2023-05-16T03:42:04;13.60;72.50
5868;DHT22;2960;49.142;7.768;2023-05-16T03:44:32;13.60;71.80
5868;DHT22;2960;49.142;7.768;2023-05-16T03:46:59;13.60;71.80
5868;DHT22;2960;49.142;7.768;2023-05-16T03:49:26;13.60;71.60
5868;DHT22;2960;49.142;7.768;2023-05-16T03:51:53;13.60;71.60
5868;DHT22;2960;49.142;7.768;2023-05-16T03:54:21;13.60;71.50
5868;DHT22;2960;49.142;7.768;2023-05-16T03:56:48;13.60;71.40
5868;DHT22;2960;49.142;7.768;2023-05-16T03:59:17;13.60;71.30
5868;DHT22;2960;49.142;7.768;2023-05-16T04:01:46;13.60;71.30
5868;DHT22;2960;49.142;7.768;2023-05-16T04:04:13;13.60;71.10
5868;DHT22;2960;49.142;7.768;2023-05-16T04:06:40;13.60;71.10
5868;DHT22;2960;49.142;7.768;2023-05-16T04:09:07;13.60;71.00
5868;DHT22;2960;49.142;7.768;2023-05-16T04:11:34;13.60;70.90
5868;DHT22;2960;49.142;7.768;2023-05-16T04:14:03;13.60;70.80
5868;DHT22;2960;49.142;7.768;2023-05-16T04:16:31;13.60;70.70
5868;DHT22;2960;49.142;7.768;2023-05-16T04:18:58;13.60;70.60
5868;DHT22;2960;49.142;7.768;2023-05-16T04:21:26;13.60;70.50
5868;DHT22;2960;49.142;7.768;2023-05-16T04:23:53;13.60;70.50
5868;DHT22;2960;49.142;7.768;2023-05-16T04:26:21;13.60;70.40
5868;DHT22;2960;49.142;7.768;2023-05-16T04:28:49;13.60;70.40
5868;DHT22;2960;49.142;7.768;2023-05-16T04:31:16;13.50;70.40
5868;DHT22;2960;49.142;7.768;2023-05-16T04:33:44;13.60;71.30
5868;DHT22;2960;49.142;7.768;2023-05-16T04:36:11;13.60;70.40
5868;DHT22;2960;49.142;7.768;2023-05-16T04:38:39;13.60;70.40
5868;DHT22;2960;49.142;7.768;2023-05-16T04:41:06;13.60;70.40
5868;DHT22;2960;49.142;7.768;2023-05-16T04:43:33;13.60;71.10
5868;DHT22;2960;49.142;7.768;2023-05-16T04:46:01;13.60;70.30
5868;DHT22;2960;49.142;7.768;2023-05-16T04:48:28;13.60;70.30
5868;DHT22;2960;49.142;7.768;2023-05-16T04:50:57;13.60;70.40
5868;DHT22;2960;49.142;7.768;2023-05-16T04:53:24;13.60;70.30
5868;DHT22;2960;49.142;7.768;2023-05-16T04:55:51;13.60;70.30
5868;DHT22;2960;49.142;7.768;2023-05-16T04:58:19;13.60;70.20
5868;DHT22;2960;49.142;7.768;2023-05-16T05:00:48;13.60;70.10
5868;DHT22;2960;49.142;7.768;2023-05-16T05:03:16;13.70;70.20
5868;DHT22;2960;49.142;7.768;2023-05-16T05:05:43;13.70;70.10
5868;DHT22;2960;49.142;7.768;2023-05-16T05:08:12;13.70;70.00
5868;DHT22;2960;49.142;7.768;2023-05-16T05:10:39;13.70;69.90
5868;DHT22;2960;49.142;7.768;2023-05-16T05:13:06;13.70;69.90
5868;DHT22;2960;49.142;7.768;2023-05-16T05:15:33;13.70;69.90
5868;DHT22;2960;49.142;7.768;2023-05-16T05:18:00;13.70;69.80
5868;DHT22;2960;49.142;7.768;2023-05-16T05:20:28;13.70;69.90
5868;DHT22;2960;49.142;7.768;2023-05-16T05:22:55;13.80;69.90
5868;DHT22;2960;49.142;7.768;2023-05-16T05:25:23;13.80;69.80
5868;DHT22;2960;49.142;7.768;2023-05-16T05:27:50;13.80;69.70
5868;DHT22;2960;49.142;7.768;2023-05-16T05:30:17;13.80;69.60
5868;DHT22;2960;49.142;7.768;2023-05-16T05:32:44;13.80;69.60
5868;DHT22;2960;49.142;7.768;2023-05-16T05:35:11;13.80;69.60
5868;DHT22;2960;49.142;7.768;2023-05-16T05:37:40;13.80;69.50
5868;DHT22;2960;49.142;7.768;2023-05-16T05:40:07;13.80;69.60
5868;DHT22;2960;49.142;7.768;2023-05-16T05:42:36;13.70;69.50
5868;DHT22;2960;49.142;7.768;2023-05-16T05:45:04;13.80;69.60
5868;DHT22;2960;49.142;7.768;2023-05-16T05:47:32;13.80;69.50
5868;DHT22;2960;49.142;7.768;2023-05-16T05:49:59;13.90;69.60
5868;DHT22;2960;49.142;7.768;2023-05-16T05:52:27;13.90;69.40
5868;DHT22;2960;49.142;7.768;2023-05-16T05:54:54;13.90;69.40
5868;DHT22;2960;49.142;7.768;2023-05-16T05:57:24;13.90;69.30
5868;DHT22;2960;49.142;7.768;2023-05-16T05:59:54;13.80;69.00
5868;DHT22;2960;49.142;7.768;2023-05-16T06:02:22;13.80;69.00
5868;DHT22;2960;49.142;7.768;2023-05-16T06:04:49;13.80;68.90
5868;DHT22;2960;49.142;7.768;2023-05-16T06:07:16;13.90;69.80
5868;DHT22;2960;49.142;7.768;2023-05-16T06:09:44;13.80;68.90
5868;DHT22;2960;49.142;7.768;2023-05-16T06:12:13;13.80;68.80
5868;DHT22;2960;49.142;7.768;2023-05-16T06:14:40;13.90;68.80
5868;DHT22;2960;49.142;7.768;2023-05-16T06:17:08;13.80;68.50
5868;DHT22;2960;49.142;7.768;2023-05-16T06:19:35;13.90;68.60
5868;DHT22;2960;49.142;7.768;2023-05-16T06:22:03;13.90;68.60
5868;DHT22;2960;49.142;7.768;2023-05-16T06:24:30;13.90;68.60
5868;DHT22;2960;49.142;7.768;2023-05-16T06:26:57;13.90;68.50
5868;DHT22;2960;49.142;7.768;2023-05-16T06:29:24;13.90;68.30
5868;DHT22;2960;49.142;7.768;2023-05-16T06:31:51;13.90;68.10
5868;DHT22;2960;49.142;7.768;2023-05-16T06:34:20;14.00;68.10
5868;DHT22;2960;49.142;7.768;2023-05-16T06:36:52;14.00;68.10
5868;DHT22;2960;49.142;7.768;2023-05-16T06:39:19;14.00;67.90
5868;DHT22;2960;49.142;7.768;2023-05-16T06:41:46;14.00;67.70
5868;DHT22;2960;49.142;7.768;2023-05-16T06:44:13;14.00;68.40
5868;DHT22;2960;49.142;7.768;2023-05-16T06:46:40;14.00;67.50
5868;DHT22;2960;49.142;7.768;2023-05-16T06:49:07;14.00;67.40
5868;DHT22;2960;49.142;7.768;2023-05-16T06:51:35;14.00;67.30
5868;DHT22;2960;49.142;7.768;2023-05-16T06:54:03;14.00;67.20
5868;DHT22;2960;49.142;7.768;2023-05-16T06:56:30;14.00;67.10
5868;DHT22;2960;49.142;7.768;2023-05-16T06:58:57;14.00;67.10
5868;DHT22;2960;49.142;7.768;2023-05-16T07:01:26;14.00;67.00
5868;DHT22;2960;49.142;7.768;2023-05-16T07:03:53;14.00;67.00
5868;DHT22;2960;49.142;7.768;2023-05-16T07:06:20;14.00;67.00
5868;DHT22;2960;49.142;7.768;2023-05-16T07:08:48;14.10;67.00
5868;DHT22;2960;49.142;7.768;2023-05-16T07:11:15;14.10;66.90
5868;DHT22;2960;49.142;7.768;2023-05-16T07:13:42;14.10;66.80
5868;DHT22;2960;49.142;7.768;2023-05-16T07:16:10;14.10;66.70
5868;DHT22;2960;49.142;7.768;2023-05-16T07:18:38;14.10;66.70
5868;DHT22;2960;49.142;7.768;2023-05-16T07:21:05;14.10;66.50
5868;DHT22;2960;49.142;7.768;2023-05-16T07:23:32;14.10;66.50
5868;DHT22;2960;49.142;7.768;2023-05-16T07:26:01;14.10;66.50
5868;DHT22;2960;49.142;7.768;2023-05-16T07:28:28;14.10;66.50
5868;DHT22;2960;49.142;7.768;2023-05-16T07:30:55;14.10;66.40
5868;DHT22;2960;49.142;7.768;2023-05-16T07:33:26;14.10;66.30
5868;DHT22;2960;49.142;7.768;2023-05-16T07:35:53;14.10;66.20
5868;DHT22;2960;49.142;7.768;2023-05-16T07:38:20;14.10;66.20
5868;DHT22;2960;49.142;7.768;2023-05-16T07:40:47;14.10;66.80
5868;DHT22;2960;49.142;7.768;2023-05-16T07:43:16;14.10;66.90
5868;DHT22;2960;49.142;7.768;2023-05-16T07:45:43;14.00;66.00
5868;DHT22;2960;49.142;7.768;2023-05-16T07:48:10;14.00;66.00
5868;DHT22;2960;49.142;7.768;2023-05-16T07:50:37;14.10;66.00
5868;DHT22;2960;49.142;7.768;2023-05-16T07:53:05;14.00;65.70
5868;DHT22;2960;49.142;7.768;2023-05-16T07:55:32;14.00;65.80
5868;DHT22;2960;49.142;7.768;2023-05-16T07:57:59;14.00;65.90
5868;DHT22;2960;49.142;7.768;2023-05-16T08:00:28;14.00;65.80
5868;DHT22;2960;49.142;7.768;2023-05-16T08:02:56;14.00;65.70
5868;DHT22;2960;49.142;7.768;2023-05-16T08:05:23;14.00;65.70
5868;DHT22;2960;49.142;7.768;2023-05-16T08:07:50;14.00;65.70
5868;DHT22;2960;49.142;7.768;2023-05-16T08:10:17;14.00;65.70
5868;DHT22;2960;49.142;7.768;2023-05-16T08:12:44;14.10;65.80
5868;DHT22;2960;49.142;7.768;2023-05-16T08:15:12;14.10;65.70
5868;DHT22;2960;49.142;7.768;2023-05-16T08:17:41;14.10;65.50
5868;DHT22;2960;49.142;7.768;2023-05-16T08:20:11;14.10;65.50
5868;DHT22;2960;49.142;7.768;2023-05-16T08:22:39;14.10;65.50
5868;DHT22;2960;49.142;7.768;2023-05-16T08:25:06;14.10;65.60
5868;DHT22;2960;49.142;7.768;2023-05-16T08:27:34;14.10;65.50
5868;DHT22;2960;49.142;7.768;2023-05-16T08:30:01;14.20;66.30
5868;DHT22;2960;49.142;7.768;2023-05-16T08:32:31;14.10;65.30
5868;DHT22;2960;49.142;7.768;2023-05-16T08:34:59;14.20;65.20
5868;DHT22;2960;49.142;7.768;2023-05-16T08:37:26;14.20;65.20
5868;DHT22;2960;49.142;7.768;2023-05-16T08:39:53;14.20;65.10
5868;DHT22;2960;49.142;7.768;2023-05-16T08:42:20;14.20;64.90
5868;DHT22;2960;49.142;7.768;2023-05-16T08:44:48;14.20;64.80
5868;DHT22;2960;49.142;7.768;2023-05-16T08:47:18;14.20;64.90
5868;DHT22;2960;49.142;7.768;2023-05-16T08:49:47;14.30;65.00
5868;DHT22;2960;49.142;7.768;2023-05-16T08:52:18;14.30;64.80
5868;DHT22;2960;49.142;7.768;2023-05-16T08:54:45;14.30;64.50
5868;DHT22;2960;49.142;7.768;2023-05-16T08:57:14;14.30;64.40
5868;DHT22;2960;49.142;7.768;2023-05-16T08:59:43;14.40;64.60
5868;DHT22;2960;49.142;7.768;2023-05-16T09:02:11;14.40;64.40
5868;DHT22;2960;49.142;7.768;2023-05-16T09:04:39;14.40;65.00
5868;DHT22;2960;49.142;7.768;2023-05-16T09:07:07;14.30;64.10
5868;DHT22;2960;49.142;7.768;2023-05-16T09:09:36;14.30;64.00
5868;DHT22;2960;49.142;7.768;2023-05-16T09:12:03;14.30;63.90
5868;DHT22;2960;49.142;7.768;2023-05-16T09:14:31;14.30;64.40
5868;DHT22;2960;49.142;7.768;2023-05-16T09:17:05;14.30;63.40
5868;DHT22;2960;49.142;7.768;2023-05-16T09:19:37;14.40;63.50
5868;DHT22;2960;49.142;7.768;2023-05-16T09:22:06;14.40;63.40
5868;DHT22;2960;49.142;7.768;2023-05-16T09:24:38;14.40;63.40
5868;DHT22;2960;49.142;7.768;2023-05-16T09:27:09;14.40;63.30
5868;DHT22;2960;49.142;7.768;2023-05-16T09:29:39;14.50;63.30
5868;DHT22;2960;49.142;7.768;2023-05-16T09:32:11;14.50;63.30
5868;DHT22;2960;49.142;7.768;2023-05-16T09:34:42;14.50;63.10
5868;DHT22;2960;49.142;7.768;2023-05-16T09:37:11;14.60;63.10
5868;DHT22;2960;49.142;7.768;2023-05-16T09:39:45;14.60;62.90
5868;DHT22;2960;49.142;7.768;2023-05-16T09:42:13;14.50;62.90
5868;DHT22;2960;49.142;7.768;2023-05-16T09:44:41;14.50;62.80
5868;DHT22;2960;49.142;7.768;2023-05-16T09:47:13;14.50;62.80
5868;DHT22;2960;49.142;7.768;2023-05-16T09:49:41;14.40;62.50
5868;DHT22;2960;49.142;7.768;2023-05-16T09:52:08;14.40;62.50
5868;DHT22;2960;49.142;7.768;2023-05-16T09:54:36;14.40;62.50
5868;DHT22;2960;49.142;7.768;2023-05-16T09:57:05;14.40;62.20
5868;DHT22;2960;49.142;7.768;2023-05-16T09:59:35;14.30;62.20
5868;DHT22;2960;49.142;7.768;2023-05-16T10:02:04;14.30;62.20
5868;DHT22;2960;49.142;7.768;2023-05-16T10:04:32;14.30;62.00
5868;DHT22;2960;49.142;7.768;2023-05-16T10:07:02;14.30;62.70
5868;DHT22;2960;49.142;7.768;2023-05-16T10:09:31;14.20;61.70
5868;DHT22;2960;49.142;7.768;2023-05-16T10:12:00;14.20;61.80
5868;DHT22;2960;49.142;7.768;2023-05-16T10:14:34;14.10;61.70
5868;DHT22;2960;49.142;7.768;2023-05-16T10:17:03;14.10;61.50
5868;DHT22;2960;49.142;7.768;2023-05-16T10:19:31;14.10;61.40
5868;DHT22;2960;49.142;7.768;2023-05-16T10:22:04;14.10;61.50
5868;DHT22;2960;49.142;7.768;2023-05-16T10:24:38;14.00;61.40
5868;DHT22;2960;49.142;7.768;2023-05-16T10:27:09;14.00;61.20
5868;DHT22;2960;49.142;7.768;2023-05-16T10:29:39;14.00;61.10
5868;DHT22;2960;49.142;7.768;2023-05-16T10:32:08;14.00;61.10
5868;DHT22;2960;49.142;7.768;2023-05-16T10:34:36;14.00;61.00
5868;DHT22;2960;49.142;7.768;2023-05-16T10:37:05;14.00;61.90
5868;DHT22;2960;49.142;7.768;2023-05-16T10:39:33;14.00;61.10
5868;DHT22;2960;49.142;7.768;2023-05-16T10:42:00;13.90;61.00
5868;DHT22;2960;49.142;7.768;2023-05-16T10:44:31;14.00;61.20
5868;DHT22;2960;49.142;7.768;2023-05-16T10:47:00;14.00;61.10
5868;DHT22;2960;49.142;7.768;2023-05-16T10:49:29;14.00;61.00
5868;DHT22;2960;49.142;7.768;2023-05-16T10:52:05;13.90;60.80
5868;DHT22;2960;49.142;7.768;2023-05-16T10:54:35;13.90;60.80
5868;DHT22;2960;49.142;7.768;2023-05-16T10:57:05;13.90;60.80
5868;DHT22;2960;49.142;7.768;2023-05-16T10:59:41;13.90;60.80
5868;DHT22;2960;49.142;7.768;2023-05-16T11:02:23;13.90;61.00
5868;DHT22;2960;49.142;7.768;2023-05-16T11:04:52;13.90;60.90
5868;DHT22;2960;49.142;7.768;2023-05-16T11:07:23;13.90;60.90
5868;DHT22;2960;49.142;7.768;2023-05-16T11:10:05;13.90;60.60
5868;DHT22;2960;49.142;7.768;2023-05-16T11:12:44;13.80;60.50
5868;DHT22;2960;49.142;7.768;2023-05-16T11:15:20;13.80;60.50
5868;DHT22;2960;49.142;7.768;2023-05-16T11:18:03;13.80;60.60
5868;DHT22;2960;49.142;7.768;2023-05-16T11:20:32;13.80;60.70
5868;DHT22;2960;49.142;7.768;2023-05-16T11:23:25;13.80;60.70
5868;DHT22;2960;49.142;7.768;2023-05-16T11:25:54;13.80;60.60
5868;DHT22;2960;49.142;7.768;2023-05-16T11:28:24;13.70;60.60
5868;DHT22;2960;49.142;7.768;2023-05-16T11:30:53;13.70;60.60
5868;DHT22;2960;49.142;7.768;2023-05-16T11:33:23;13.70;60.50
5868;DHT22;2960;49.142;7.768;2023-05-16T11:36:02;13.70;60.50
5868;DHT22;2960;49.142;7.768;2023-05-16T11:38:31;13.70;60.50
5868;DHT22;2960;49.142;7.768;2023-05-16T11:41:03;13.70;60.60
5868;DHT22;2960;49.142;7.768;2023-05-16T11:43:37;13.70;61.30
5868;DHT22;2960;49.142;7.768;2023-05-16T11:46:05;13.70;60.50
5868;DHT22;2960;49.142;7.768;2023-05-16T11:48:35;13.70;60.40
5868;DHT22;2960;49.142;7.768;2023-05-16T11:51:02;13.70;60.30
5868;DHT22;2960;49.142;7.768;2023-05-16T11:53:29;13.70;60.30
5868;DHT22;2960;49.142;7.768;2023-05-16T11:55:57;13.70;60.30
5868;DHT22;2960;49.142;7.768;2023-05-16T11:58:26;13.70;60.30
5868;DHT22;2960;49.142;7.768;2023-05-16T12:00:54;13.70;60.20
5868;DHT22;2960;49.142;7.768;2023-05-16T12:03:21;13.70;60.20
5868;DHT22;2960;49.142;7.768;2023-05-16T12:05:50;13.70;60.30
5868;DHT22;2960;49.142;7.768;2023-05-16T12:08:19;13.70;60.20
5868;DHT22;2960;49.142;7.768;2023-05-16T12:10:49;13.80;60.30
5868;DHT22;2960;49.142;7.768;2023-05-16T12:13:18;13.80;60.20
5868;DHT22;2960;49.142;7.768;2023-05-16T12:15:46;13.80;60.30
5868;DHT22;2960;49.142;7.768;2023-05-16T12:18:17;13.80;60.30
5868;DHT22;2960;49.142;7.768;2023-05-16T12:20:45;13.80;60.10
5868;DHT22;2960;49.142;7.768;2023-05-16T12:23:14;13.80;60.00
5868;DHT22;2960;49.142;7.768;2023-05-16T12:25:44;13.80;60.00
5868;DHT22;2960;49.142;7.768;2023-05-16T12:28:14;13.90;60.00
5868;DHT22;2960;49.142;7.768;2023-05-16T12:30:43;13.90;59.90
5868;DHT22;2960;49.142;7.768;2023-05-16T12:33:14;13.90;59.80
5868;DHT22;2960;49.142;7.768;2023-05-16T12:35:46;14.00;60.40
5868;DHT22;2960;49.142;7.768;2023-05-16T12:38:15;14.00;59.60
5868;DHT22;2960;49.142;7.768;2023-05-16T12:40:43;14.00;59.50
5868;DHT22;2960;49.142;7.768;2023-05-16T12:43:15;14.10;59.20
5868;DHT22;2960;49.142;7.768;2023-05-16T12:45:49;14.10;59.10
5868;DHT22;2960;49.142;7.768;2023-05-16T12:48:17;14.20;59.00
5868;DHT22;2960;49.142;7.768;2023-05-16T12:50:44;14.30;58.90
5868;DHT22;2960;49.142;7.768;2023-05-16T12:53:14;14.30;58.30
5868;DHT22;2960;49.142;7.768;2023-05-16T12:55:42;14.40;58.10
5868;DHT22;2960;49.142;7.768;2023-05-16T12:58:10;14.40;58.00
5868;DHT22;2960;49.142;7.768;2023-05-16T13:00:37;14.50;58.00
5868;DHT22;2960;49.142;7.768;2023-05-16T13:03:05;14.50;57.60
5868;DHT22;2960;49.142;7.768;2023-05-16T13:05:32;14.60;57.40
5868;DHT22;2960;49.142;7.768;2023-05-16T13:08:00;14.60;57.50
5868;DHT22;2960;49.142;7.768;2023-05-16T13:10:29;14.60;56.50
5868;DHT22;2960;49.142;7.768;2023-05-16T13:12:56;14.70;56.40
5868;DHT22;2960;49.142;7.768;2023-05-16T13:15:24;14.70;56.40
5868;DHT22;2960;49.142;7.768;2023-05-16T13:17:51;14.80;56.40
5868;DHT22;2960;49.142;7.768;2023-05-16T13:20:18;14.80;56.30
5868;DHT22;2960;49.142;7.768;2023-05-16T13:22:46;14.90;56.20
5868;DHT22;2960;49.142;7.768;2023-05-16T13:25:13;15.00;56.10
5868;DHT22;2960;49.142;7.768;2023-05-16T13:27:42;15.10;55.90
5868;DHT22;2960;49.142;7.768;2023-05-16T13:30:09;15.20;55.70
5868;DHT22;2960;49.142;7.768;2023-05-16T13:32:37;15.20;55.40
5868;DHT22;2960;49.142;7.768;2023-05-16T13:35:05;15.30;55.10
5868;DHT22;2960;49.142;7.768;2023-05-16T13:37:34;15.40;54.70
5868;DHT22;2960;49.142;7.768;2023-05-16T13:40:02;15.40;54.20
5868;DHT22;2960;49.142;7.768;2023-05-16T13:42:30;15.40;54.00
5868;DHT22;2960;49.142;7.768;2023-05-16T13:44:58;15.50;53.80
5868;DHT22;2960;49.142;7.768;2023-05-16T13:47:26;15.50;53.80
5868;DHT22;2960;49.142;7.768;2023-05-16T13:49:54;15.60;54.10
5868;DHT22;2960;49.142;7.768;2023-05-16T13:52:21;15.70;54.20
5868;DHT22;2960;49.142;7.768;2023-05-16T13:54:48;15.70;54.10
5868;DHT22;2960;49.142;7.768;2023-05-16T13:57:16;15.80;54.00
5868;DHT22;2960;49.142;7.768;2023-05-16T13:59:44;15.90;54.00
5868;DHT22;2960;49.142;7.768;2023-05-16T14:02:12;16.00;54.00
5868;DHT22;2960;49.142;7.768;2023-05-16T14:04:39;16.10;53.90
5868;DHT22;2960;49.142;7.768;2023-05-16T14:07:06;16.10;53.70
5868;DHT22;2960;49.142;7.768;2023-05-16T14:09:33;16.20;53.70
5868;DHT22;2960;49.142;7.768;2023-05-16T14:12:04;16.30;53.70
5868;DHT22;2960;49.142;7.768;2023-05-16T14:14:32;16.30;53.50
5868;DHT22;2960;49.142;7.768;2023-05-16T14:16:59;16.40;53.40
5868;DHT22;2960;49.142;7.768;2023-05-16T14:19:27;16.40;53.40
5868;DHT22;2960;49.142;7.768;2023-05-16T14:21:55;16.40;53.30
5868;DHT22;2960;49.142;7.768;2023-05-16T14:24:22;16.50;53.30
5868;DHT22;2960;49.142;7.768;2023-05-16T14:26:49;16.50;53.20
5868;DHT22;2960;49.142;7.768;2023-05-16T14:29:20;16.50;53.10
5868;DHT22;2960;49.142;7.768;2023-05-16T14:31:48;16.50;53.40
5868;DHT22;2960;49.142;7.768;2023-05-16T14:34:15;16.50;52.70
5868;DHT22;2960;49.142;7.768;2023-05-16T14:36:44;16.50;52.50
5868;DHT22;2960;49.142;7.768;2023-05-16T14:39:11;16.50;52.20
5868;DHT22;2960;49.142;7.768;2023-05-16T14:41:39;16.60;52.30
5868;DHT22;2960;49.142;7.768;2023-05-16T14:44:06;16.60;52.30
5868;DHT22;2960;49.142;7.768;2023-05-16T14:46:33;16.70;51.80
5868;DHT22;2960;49.142;7.768;2023-05-16T14:49:02;16.70;51.50
5868;DHT22;2960;49.142;7.768;2023-05-16T14:51:29;16.70;51.10
5868;DHT22;2960;49.142;7.768;2023-05-16T14:53:59;16.70;50.90
5868;DHT22;2960;49.142;7.768;2023-05-16T14:56:26;16.70;50.40
5868;DHT22;2960;49.142;7.768;2023-05-16T14:58:54;16.70;49.90
5868;DHT22;2960;49.142;7.768;2023-05-16T15:01:21;16.70;49.80
5868;DHT22;2960;49.142;7.768;2023-05-16T15:03:48;16.60;50.00
5868;DHT22;2960;49.142;7.768;2023-05-16T15:06:15;16.60;49.50
5868;DHT22;2960;49.142;7.768;2023-05-16T15:08:43;16.60;49.60
5868;DHT22;2960;49.142;7.768;2023-05-16T15:11:12;16.60;49.50
5868;DHT22;2960;49.142;7.768;2023-05-16T15:13:39;16.60;49.30
5868;DHT22;2960;49.142;7.768;2023-05-16T15:16:06;16.60;49.40
5868;DHT22;2960;49.142;7.768;2023-05-16T15:18:33;16.60;49.00
5868;DHT22;2960;49.142;7.768;2023-05-16T15:21:00;16.60;49.00
5868;DHT22;2960;49.142;7.768;2023-05-16T15:23:28;16.60;49.00
5868;DHT22;2960;49.142;7.768;2023-05-16T15:25:55;16.60;48.80
5868;DHT22;2960;49.142;7.768;2023-05-16T15:28:23;16.60;48.70
5868;DHT22;2960;49.142;7.768;2023-05-16T15:30:50;16.70;48.80
5868;DHT22;2960;49.142;7.768;2023-05-16T15:33:17;16.70;48.70
5868;DHT22;2960;49.142;7.768;2023-05-16T15:35:45;16.70;48.40
5868;DHT22;2960;49.142;7.768;2023-05-16T15:38:13;16.80;48.50
5868;DHT22;2960;49.142;7.768;2023-05-16T15:40:40;16.80;48.10
5868;DHT22;2960;49.142;7.768;2023-05-16T15:43:07;16.80;47.40
5868;DHT22;2960;49.142;7.768;2023-05-16T15:45:35;16.80;47.80
5868;DHT22;2960;49.142;7.768;2023-05-16T15:48:02;16.70;47.30
5868;DHT22;2960;49.142;7.768;2023-05-16T15:50:30;16.70;47.20
5868;DHT22;2960;49.142;7.768;2023-05-16T15:52:57;16.70;47.30
5868;DHT22;2960;49.142;7.768;2023-05-16T15:55:24;16.70;47.10
5868;DHT22;2960;49.142;7.768;2023-05-16T15:57:51;16.70;46.60
5868;DHT22;2960;49.142;7.768;2023-05-16T16:00:21;16.70;46.60
5868;DHT22;2960;49.142;7.768;2023-05-16T16:02:50;16.70;46.70
5868;DHT22;2960;49.142;7.768;2023-05-16T16:05:17;16.70;46.70
5868;DHT22;2960;49.142;7.768;2023-05-16T16:07:44;16.70;46.60
5868;DHT22;2960;49.142;7.768;2023-05-16T16:10:11;16.70;46.50